createdAt,value
2022-09-07T00:02:20.574Z,64.62
2022-09-07T00:04:47.292Z,65.49
2022-09-07T00:07:14.040Z,66.79
2022-09-07T00:09:40.725Z,66.09
2022-09-07T00:12:07.423Z,65.29
2022-09-07T00:14:56.027Z,64.95
2022-09-07T00:17:22.652Z,64.46
2022-09-07T00:19:49.820Z,64.03
2022-09-07T00:22:16.446Z,63.75
2022-09-07T00:24:43.159Z,64.92
2022-09-07T00:27:11.249Z,65.12
2022-09-07T00:30:36.466Z,65.29
2022-09-07T00:33:53.695Z,64.99
2022-09-07T00:36:22.425Z,64.43
2022-09-07T00:38:49.906Z,64.86
2022-09-07T00:41:17.780Z,64.33
2022-09-07T00:43:47.876Z,64.48
2022-09-07T00:46:17.269Z,64.83
2022-09-07T00:49:22.801Z,64.73
2022-09-07T00:51:58.829Z,64.22
2022-09-07T00:54:33.345Z,63.67
2022-09-07T00:57:00.459Z,64.04
2022-09-07T00:59:32.560Z,64.44
2022-09-07T01:01:59.592Z,64.17
2022-09-07T01:05:11.500Z,63.49
2022-09-07T01:08:24.814Z,63.22
2022-09-07T01:10:51.935Z,63.47
2022-09-07T01:13:18.575Z,64.29
2022-09-07T01:16:07.878Z,64.05
2022-09-07T01:18:49.899Z,64.48
2022-09-07T01:21:25.692Z,64.73
2022-09-07T01:24:35.114Z,65.49
2022-09-07T01:27:26.862Z,66.08
2022-09-07T01:30:14.620Z,68.00
2022-09-07T01:32:47.434Z,67.24
2022-09-07T01:35:26.438Z,67.52
2022-09-07T01:41:22.722Z,66.97
2022-09-07T01:44:08.356Z,68.05
2022-09-07T01:46:43.744Z,68.27
2022-09-07T01:49:20.677Z,67.32
2022-09-07T01:51:53.074Z,67.12
2022-09-07T01:54:30.019Z,67.15
2022-09-07T01:57:02.619Z,67.12
2022-09-07T01:59:55.733Z,68.18
2022-09-07T02:02:26.870Z,67.17
2022-09-07T02:05:06.198Z,66.19
2022-09-07T02:07:45.377Z,66.72
2022-09-07T02:10:38.588Z,67.29
2022-09-07T02:19:30.359Z,68.18
2022-09-07T02:22:03.106Z,68.20
2022-09-07T02:24:33.805Z,67.88
2022-09-07T02:27:06.595Z,67.48
2022-09-07T02:29:33.123Z,67.10
2022-09-07T02:31:59.774Z,66.29
2022-09-07T02:34:38.574Z,65.97
2022-09-07T02:37:09.040Z,66.24
2022-09-07T02:39:35.823Z,65.61
2022-09-07T02:42:03.016Z,65.55
2022-09-07T02:44:34.701Z,65.68
2022-09-07T02:47:20.518Z,65.71
2022-09-07T02:54:23.476Z,66.45
2022-09-07T02:56:58.922Z,67.17
2022-09-07T02:59:44.710Z,66.26
2022-09-07T03:02:25.157Z,66.84
2022-09-07T03:05:10.113Z,67.30
2022-09-07T03:08:01.414Z,66.76
2022-09-07T03:10:29.152Z,66.71
2022-09-07T03:12:55.805Z,67.02
2022-09-07T03:15:25.394Z,67.29
2022-09-07T03:17:53.040Z,66.65
2022-09-07T03:20:21.644Z,66.46
2022-09-07T03:23:38.187Z,66.95
2022-09-07T03:26:34.548Z,67.79
2022-09-07T03:29:01.244Z,66.99
2022-09-07T03:31:27.860Z,66.55
2022-09-07T03:33:54.933Z,66.23
2022-09-07T03:36:21.545Z,66.17
2022-09-07T03:38:48.162Z,66.37
2022-09-07T03:41:39.755Z,67.09
2022-09-07T03:44:07.863Z,67.28
2022-09-07T03:46:35.177Z,67.34
2022-09-07T03:49:02.067Z,67.39
2022-09-07T03:51:28.763Z,67.02
2022-09-07T03:53:55.467Z,66.63
2022-09-07T03:56:24.396Z,66.30
2022-09-07T03:59:16.945Z,66.83
2022-09-07T04:01:53.798Z,66.87
2022-09-07T04:04:20.841Z,66.17
2022-09-07T04:06:47.489Z,66.22
2022-09-07T04:09:15.224Z,65.49
2022-09-07T04:11:42.327Z,65.58
2022-09-07T04:14:10.166Z,65.79
2022-09-07T04:16:52.275Z,65.84
2022-09-07T04:19:18.929Z,65.49
2022-09-07T04:21:47.196Z,65.22
2022-09-07T04:24:15.558Z,65.34
2022-09-07T04:26:45.514Z,65.96
2022-09-07T04:29:13.115Z,65.68
2022-09-07T04:35:33.581Z,66.02
2022-09-07T04:38:00.253Z,66.44
2022-09-07T04:40:26.879Z,65.76
2022-09-07T04:42:53.482Z,65.25
2022-09-07T04:45:20.127Z,65.77
2022-09-07T04:47:50.673Z,65.16
2022-09-07T04:50:37.102Z,65.36
2022-09-07T04:53:04.050Z,64.69
2022-09-07T04:55:31.689Z,65.19
2022-09-07T04:57:58.339Z,64.88
2022-09-07T05:00:24.968Z,65.03
2022-09-07T05:02:51.712Z,64.63
2022-09-07T05:05:18.466Z,64.19
2022-09-07T05:08:22.790Z,63.56
2022-09-07T05:11:12.078Z,63.63
2022-09-07T05:13:39.467Z,64.24
2022-09-07T05:16:11.662Z,65.90
2022-09-07T05:18:39.012Z,65.37
2022-09-07T05:21:20.199Z,65.45
2022-09-07T05:23:51.126Z,65.59
2022-09-07T05:26:19.378Z,65.96
2022-09-07T05:28:46.674Z,64.93
2022-09-07T05:36:35.830Z,65.40
2022-09-07T05:39:02.579Z,63.55
2022-09-07T05:41:29.870Z,64.05
2022-09-07T05:46:43.789Z,65.68
2022-09-07T05:49:10.567Z,64.55
2022-09-07T05:51:38.051Z,64.04
2022-09-07T05:54:04.730Z,63.72
2022-09-07T05:56:35.029Z,63.18
2022-09-07T05:59:20.127Z,64.28
2022-09-07T06:01:46.811Z,64.75
2022-09-07T06:04:13.473Z,64.52
2022-09-07T06:06:40.174Z,65.42
2022-09-07T06:09:07.937Z,63.48
2022-09-07T06:11:36.541Z,63.05
2022-09-07T06:14:56.205Z,62.72
2022-09-07T06:17:44.753Z,62.02
2022-09-07T06:20:11.399Z,62.81
2022-09-07T06:22:38.540Z,62.03
2022-09-07T06:25:05.934Z,61.60
2022-09-07T06:27:32.674Z,60.86
2022-09-07T06:29:59.342Z,60.46
2022-09-07T06:32:48.104Z,59.61
2022-09-07T06:35:15.814Z,59.80
2022-09-07T06:37:42.845Z,60.39
2022-09-07T06:40:10.918Z,60.15
2022-09-07T06:42:38.307Z,61.46
2022-09-07T06:45:05.561Z,60.73
2022-09-07T06:51:29.671Z,59.49
2022-09-07T06:56:43.912Z,58.38
2022-09-07T06:59:10.856Z,58.44
2022-09-07T07:01:37.521Z,57.88
2022-09-07T07:04:04.615Z,58.81
2022-09-07T07:06:38.653Z,58.62
2022-09-07T07:09:06.955Z,58.95
2022-09-07T07:11:34.090Z,58.62
2022-09-07T07:14:00.775Z,58.47
2022-09-07T07:16:27.477Z,57.79
2022-09-07T07:18:58.059Z,57.45
2022-09-07T07:21:24.829Z,57.11
2022-09-07T07:23:53.147Z,57.19
2022-09-07T07:26:26.831Z,57.44
2022-09-07T07:31:26.832Z,56.65
2022-09-07T07:33:53.931Z,56.68
2022-09-07T07:36:23.042Z,56.50
2022-09-07T07:38:59.822Z,56.59
2022-09-07T07:44:18.756Z,56.20
2022-09-07T07:46:49.064Z,55.37
2022-09-07T07:49:16.093Z,54.81
2022-09-07T07:54:52.935Z,54.22
2022-09-07T07:57:19.848Z,53.54
2022-09-07T07:59:46.486Z,53.16
2022-09-07T08:02:17.031Z,52.57
2022-09-07T08:04:43.940Z,52.96
2022-09-07T08:11:30.380Z,52.31
2022-09-07T08:14:00.204Z,51.93
2022-09-07T08:16:26.923Z,52.94
2022-09-07T08:18:53.780Z,51.20
2022-09-07T08:21:20.443Z,50.99
2022-09-07T08:23:47.016Z,51.96
2022-09-07T08:26:32.825Z,51.51
2022-09-07T08:28:59.420Z,50.85
2022-09-07T08:31:26.024Z,50.20
2022-09-07T08:33:52.646Z,50.74
2022-09-07T08:36:21.349Z,50.03
2022-09-07T08:38:47.986Z,50.45
2022-09-07T08:45:20.939Z,50.46
2022-09-07T08:47:52.649Z,48.40
2022-09-07T08:50:25.794Z,49.31
2022-09-07T08:52:59.008Z,47.95
2022-09-07T08:55:35.959Z,47.83
2022-09-07T08:58:48.276Z,48.74
2022-09-07T09:01:44.141Z,49.38
2022-09-07T09:04:31.010Z,47.69
2022-09-07T09:07:16.995Z,47.60
2022-09-07T09:10:05.516Z,47.14
2022-09-07T09:12:55.096Z,46.81
2022-09-07T09:20:03.560Z,47.57
2022-09-07T09:22:31.011Z,47.09
2022-09-07T09:25:13.541Z,45.37
2022-09-07T09:27:40.120Z,47.15
2022-09-07T09:30:16.136Z,46.71
2022-09-07T09:32:45.377Z,47.04
2022-09-07T09:35:52.787Z,45.96
2022-09-07T09:38:34.767Z,47.92
2022-09-07T09:41:10.173Z,47.29
2022-09-07T09:43:56.235Z,46.61
2022-09-07T09:46:28.244Z,46.94
2022-09-07T09:48:58.674Z,46.77
2022-09-07T09:55:36.229Z,44.37
2022-09-07T10:01:34.689Z,42.98
2022-09-07T10:04:28.083Z,43.57
2022-09-07T10:07:00.516Z,45.00
2022-09-07T10:09:35.827Z,44.03
2022-09-07T10:12:06.667Z,43.45
2022-09-07T10:14:44.109Z,44.74
2022-09-07T10:17:19.996Z,45.48
2022-09-07T10:19:46.610Z,44.21
2022-09-07T10:22:25.712Z,45.19
2022-09-07T10:25:25.535Z,43.01
2022-09-07T10:48:38.738Z,41.54
2022-09-07T10:51:14.500Z,42.86
2022-09-07T10:56:58.699Z,40.98
2022-09-07T11:05:58.876Z,39.55
2022-09-07T11:09:15.750Z,40.39
2022-09-07T11:18:52.065Z,42.51
2022-09-07T11:24:24.774Z,39.96
2022-09-07T11:26:56.157Z,40.31
2022-09-07T11:29:33.488Z,41.60
2022-09-07T11:32:07.928Z,41.67
2022-09-07T11:35:10.008Z,41.47
2022-09-07T11:37:48.146Z,40.55
2022-09-07T11:40:24.187Z,41.16
2022-09-07T11:42:54.004Z,40.87
2022-09-07T11:45:26.976Z,40.20
2022-09-07T11:48:06.037Z,40.41
2022-09-07T11:54:45.336Z,41.61
2022-09-07T12:03:00.283Z,41.71
2022-09-07T12:05:30.144Z,41.18
2022-09-07T12:08:52.863Z,40.94
2022-09-07T12:11:37.727Z,40.27
2022-09-07T12:14:27.268Z,41.00
2022-09-07T12:17:27.779Z,40.49
2022-09-07T12:20:39.336Z,39.94
2022-09-07T12:27:26.667Z,39.83
2022-09-07T12:29:59.611Z,41.17
2022-09-07T12:32:56.160Z,41.25
2022-09-07T12:35:26.241Z,41.35
2022-09-07T12:37:54.140Z,41.18
2022-09-07T12:40:29.493Z,41.38
2022-09-07T12:43:19.313Z,39.84
2022-09-07T12:45:45.997Z,39.92
2022-09-07T12:48:15.581Z,40.19
2022-09-07T12:50:59.075Z,39.64
2022-09-07T12:53:33.034Z,39.87
2022-09-07T12:56:15.952Z,40.50
2022-09-07T12:58:51.862Z,39.81
2022-09-07T13:01:32.781Z,39.79
2022-09-07T13:04:38.283Z,40.03
2022-09-07T13:07:32.385Z,40.65
2022-09-07T13:10:01.531Z,41.27
2022-09-07T13:15:52.889Z,41.60
2022-09-07T13:18:28.639Z,41.64
2022-09-07T13:21:07.209Z,40.79
2022-09-07T13:23:34.655Z,40.02
2022-09-07T13:26:03.907Z,40.73
2022-09-07T13:28:55.880Z,40.68
2022-09-07T13:31:43.181Z,39.86
2022-09-07T13:34:34.118Z,39.54
2022-09-07T13:37:06.384Z,39.82
2022-09-07T13:39:38.121Z,39.10
2022-09-07T13:42:05.830Z,39.12
2022-09-07T13:44:34.131Z,39.42
2022-09-07T13:47:08.734Z,39.92
2022-09-07T13:49:59.299Z,38.95
2022-09-07T13:52:42.997Z,39.14
2022-09-07T13:55:15.730Z,39.09
2022-09-07T13:58:02.578Z,38.83
2022-09-07T14:00:30.999Z,38.78
2022-09-07T14:03:04.997Z,38.81
2022-09-07T14:05:31.560Z,38.35
2022-09-07T14:07:58.218Z,38.01
2022-09-07T14:10:26.578Z,37.17
2022-09-07T14:13:14.477Z,37.42
2022-09-07T14:15:43.967Z,36.84
2022-09-07T14:18:12.350Z,35.98
2022-09-07T14:20:45.870Z,35.65
2022-09-07T14:23:28.173Z,35.83
2022-09-07T14:26:19.665Z,36.01
2022-09-07T14:28:48.328Z,36.25
2022-09-07T14:31:17.901Z,36.66
2022-09-07T14:33:52.382Z,36.95
2022-09-07T14:36:43.544Z,37.42
2022-09-07T14:39:11.858Z,37.61
2022-09-07T14:41:40.703Z,37.89
2022-09-07T14:44:27.424Z,38.18
2022-09-07T14:46:56.697Z,38.49
2022-09-07T14:49:24.706Z,38.65
2022-09-07T14:51:53.726Z,38.33
2022-09-07T14:54:23.196Z,38.26
2022-09-07T14:57:05.903Z,38.48
2022-09-07T14:59:47.229Z,38.47
2022-09-07T15:02:20.080Z,38.73
2022-09-07T15:04:48.082Z,39.17
2022-09-07T15:07:41.042Z,39.48
2022-09-07T15:10:23.532Z,39.28
2022-09-07T15:12:55.733Z,39.38
2022-09-07T15:15:30.101Z,39.41
2022-09-07T15:18:05.828Z,39.46
2022-09-07T15:20:41.498Z,39.64
2022-09-07T15:23:17.823Z,39.82
2022-09-07T15:25:50.918Z,39.93
2022-09-07T15:34:02.324Z,40.08
2022-09-07T15:36:31.876Z,39.97
2022-09-07T15:39:00.304Z,39.90
2022-09-07T15:41:28.511Z,40.04
2022-09-07T15:43:56.805Z,40.04
2022-09-07T15:46:25.066Z,40.11
2022-09-07T15:48:54.452Z,40.31
2022-09-07T15:54:14.264Z,40.44
2022-09-07T15:56:43.681Z,40.66
2022-09-07T15:59:12.042Z,40.79
2022-09-07T16:01:56.478Z,40.87
2022-09-07T16:04:24.071Z,40.77
2022-09-07T16:06:50.919Z,40.81
2022-09-07T16:09:21.131Z,41.10
2022-09-07T16:11:50.057Z,40.97
2022-09-07T16:14:17.853Z,40.96
2022-09-07T16:19:34.969Z,40.89
2022-09-07T16:22:02.140Z,41.03
2022-09-07T16:24:29.117Z,41.12
2022-09-07T16:26:55.674Z,41.20
2022-09-07T16:29:22.232Z,41.23
2022-09-07T16:34:35.443Z,41.25
2022-09-07T16:37:02.261Z,41.45
2022-09-07T16:39:32.151Z,41.75
2022-09-07T16:42:00.093Z,42.27
2022-09-07T16:44:26.832Z,42.68
2022-09-07T16:46:53.515Z,43.13
2022-09-07T16:49:20.154Z,43.48
2022-09-07T16:51:46.810Z,43.87
2022-09-07T16:54:15.743Z,44.22
2022-09-07T16:56:42.422Z,44.48
2022-09-07T16:59:28.088Z,44.64
2022-09-07T17:01:54.711Z,44.78
2022-09-07T17:04:21.448Z,44.81
2022-09-07T17:06:48.184Z,44.97
2022-09-07T17:09:15.018Z,45.59
2022-09-07T17:11:42.065Z,45.90
2022-09-07T17:14:58.676Z,46.49
2022-09-07T17:17:47.593Z,47.15
2022-09-07T17:20:14.415Z,47.70
2022-09-07T17:22:41.122Z,47.71
2022-09-07T17:25:08.219Z,47.84
2022-09-07T17:27:34.767Z,48.21
2022-09-07T17:30:01.388Z,48.59
2022-09-07T17:32:29.974Z,48.36
2022-09-07T17:34:56.626Z,48.48
2022-09-07T17:37:23.218Z,48.82
2022-09-07T17:39:49.914Z,49.38
2022-09-07T17:42:17.056Z,49.64
2022-09-07T17:44:43.684Z,50.31
2022-09-07T17:47:10.306Z,50.56
2022-09-07T17:49:36.921Z,50.55
2022-09-07T17:52:03.661Z,51.77
2022-09-07T17:54:30.244Z,51.52
2022-09-07T17:56:56.900Z,51.44
2022-09-07T18:02:13.839Z,51.78
2022-09-07T18:04:40.672Z,52.18
2022-09-07T18:07:07.323Z,52.39
2022-09-07T18:09:34.035Z,52.55
2022-09-07T18:12:00.606Z,52.87
2022-09-07T18:14:28.321Z,52.96
2022-09-07T18:16:55.110Z,52.83
2022-09-07T18:19:21.847Z,53.06
2022-09-07T18:21:49.026Z,53.69
2022-09-07T18:24:25.084Z,53.61
2022-09-07T18:26:53.861Z,54.06
2022-09-07T18:29:33.708Z,54.01
2022-09-07T18:32:05.561Z,53.60
2022-09-07T18:34:34.925Z,53.50
2022-09-07T18:37:01.689Z,54.27
2022-09-07T18:39:28.463Z,54.52
2022-09-07T18:41:55.311Z,54.51
2022-09-07T18:47:08.846Z,54.52
2022-09-07T18:49:35.461Z,54.63
2022-09-07T18:54:50.282Z,54.46
2022-09-07T18:57:16.967Z,54.30
2022-09-07T18:59:43.681Z,54.65
2022-09-07T19:02:10.831Z,55.56
2022-09-07T19:07:29.586Z,55.04
2022-09-07T19:09:56.726Z,56.14
2022-09-07T19:12:24.279Z,56.35
2022-09-07T19:14:51.169Z,56.70
2022-09-07T19:17:17.972Z,56.98
2022-09-07T19:19:44.666Z,56.72
2022-09-07T19:22:11.298Z,57.04
2022-09-07T19:24:38.203Z,56.00
2022-09-07T19:27:04.864Z,56.13
2022-09-07T19:29:31.423Z,57.17
2022-09-07T19:32:04.185Z,57.06
2022-09-07T19:34:39.079Z,56.80
2022-09-07T19:37:07.380Z,56.56
2022-09-07T19:39:34.334Z,57.07
2022-09-07T19:42:02.594Z,56.65
2022-09-07T19:44:29.130Z,56.55
2022-09-07T20:06:13.045Z,55.17
2022-09-07T20:23:34.065Z,54.63
2022-09-07T20:26:19.849Z,54.96
2022-09-07T21:00:42.406Z,55.69
2022-09-07T22:02:16.322Z,58.05
2022-09-07T22:07:30.983Z,58.74
2022-09-07T22:10:10.219Z,58.96
